Time;durP1;ratioP1;P1;durP2;ratioP2;P2;SDS_P1;SDS_P2;PMS_P1;PMS_P2;Temp;Humidity;BMP_temperature;BMP_pressure;BME280_temperature;BME280_humidity;BME280_pressure;Samples;Min_cycle;Max_cycle;Signal;HPM_P1;HPM_P2
2023/09/28 00:00:46;;;;;;;2.25;1.50;;;;;;;;;;4998158;28;20339;-23
2023/09/28 00:02:48;;;;;;;1.50;1.40;;;;;;;;;;4990451;28;20022;-26
2023/09/28 00:05:15;;;;;;;4.72;1.50;;;;;;;;;;4997919;28;20030;-24
2023/09/28 00:07:42;;;;;;;2.10;1.70;;;;;;;;;;4997683;28;20042;-25
2023/09/28 00:10:12;;;;;;;5.75;1.65;;;;;;;;;;4980614;28;20450;-24
2023/09/28 00:12:56;;;;;;;2.08;1.83;;;;;;;;;;4997834;28;20037;-30
2023/09/28 00:15:24;;;;;;;2.15;1.55;;;;;;;;;;4997996;28;20054;-21
2023/09/28 00:17:51;;;;;;;1.83;1.60;;;;;;;;;;4997619;28;20088;-22
2023/09/28 00:20:19;;;;;;;2.42;1.40;;;;;;;;;;4997503;28;20033;-25
2023/09/28 00:22:46;;;;;;;1.25;1.15;;;;;;;;;;4997473;28;20113;-25
2023/09/28 00:25:13;;;;;;;1.55;1.45;;;;;;;;;;4997475;28;20014;-23
2023/09/28 00:27:39;;;;;;;1.83;1.42;;;;;;;;;;4997482;28;20029;-25
2023/09/28 00:30:09;;;;;;;1.58;1.48;;;;;;;;;;4997384;28;20034;-25
2023/09/28 00:32:35;;;;;;;1.92;1.17;;;;;;;;;;4997208;28;20615;-27
2023/09/28 00:35:04;;;;;;;1.58;1.33;;;;;;;;;;4997277;28;20131;-22
2023/09/28 00:37:30;;;;;;;4.13;1.60;;;;;;;;;;4980098;28;20026;-33
2023/09/28 00:39:57;;;;;;;2.13;1.77;;;;;;;;;;4997115;28;20105;-25
2023/09/28 00:42:24;;;;;;;2.08;1.65;;;;;;;;;;4997335;28;20029;-23
2023/09/28 00:44:51;;;;;;;1.88;1.67;;;;;;;;;;4997355;28;20040;-21
2023/09/28 00:47:18;;;;;;;1.10;1.10;;;;;;;;;;4997101;28;20023;-23
2023/09/28 00:49:45;;;;;;;1.75;1.60;;;;;;;;;;4996999;28;20022;-27
2023/09/28 00:52:12;;;;;;;1.50;1.40;;;;;;;;;;4997156;28;20350;-22
2023/09/28 00:54:38;;;;;;;1.88;1.23;;;;;;;;;;4996977;28;20365;-25
2023/09/28 00:57:06;;;;;;;1.83;1.73;;;;;;;;;;4996860;28;20161;-24
2023/09/28 00:59:32;;;;;;;2.40;1.67;;;;;;;;;;4997179;28;20048;-25
2023/09/28 01:01:58;;;;;;;2.03;1.60;;;;;;;;;;4996598;28;20450;-25
2023/09/28 01:04:26;;;;;;;4.28;1.83;;;;;;;;;;4996500;28;20046;-24
2023/09/28 01:06:52;;;;;;;1.85;1.67;;;;;;;;;;4996622;28;20042;-21
2023/09/28 01:09:18;;;;;;;1.70;1.60;;;;;;;;;;4996674;28;20090;-23
2023/09/28 01:11:45;;;;;;;3.60;1.50;;;;;;;;;;4996684;28;20034;-25
2023/09/28 01:14:11;;;;;;;2.25;1.50;;;;;;;;;;4996464;28;20026;-26
2023/09/28 01:16:38;;;;;;;1.63;1.52;;;;;;;;;;4996810;28;20034;-25
2023/09/28 01:19:06;;;;;;;2.85;1.75;;;;;;;;;;4996119;28;20023;-24
2023/09/28 01:21:32;;;;;;;2.17;1.63;;;;;;;;;;4996633;28;20109;-26
2023/09/28 01:23:58;;;;;;;2.17;1.98;;;;;;;;;;4996557;28;20353;-22
2023/09/28 01:26:30;;;;;;;2.10;1.42;;;;;;;;;;4996368;28;20450;-25
2023/09/28 01:28:57;;;;;;;2.22;1.50;;;;;;;;;;4996237;28;20027;-25
2023/09/28 01:31:23;;;;;;;2.22;1.40;;;;;;;;;;4996263;28;20026;-26
2023/09/28 01:33:50;;;;;;;1.67;1.55;;;;;;;;;;4996117;28;20036;-24
2023/09/28 01:36:16;;;;;;;1.75;1.20;;;;;;;;;;4996378;28;20100;-23
2023/09/28 01:38:50;;;;;;;1.30;1.20;;;;;;;;;;4996112;28;20037;-27
2023/09/28 01:41:16;;;;;;;2.67;1.95;;;;;;;;;;4978876;28;20030;-26
2023/09/28 01:43:42;;;;;;;1.58;1.48;;;;;;;;;;4978893;28;20058;-24
2023/09/28 01:46:10;;;;;;;2.53;1.40;;;;;;;;;;4995886;28;20023;-23
2023/09/28 01:48:36;;;;;;;1.83;1.38;;;;;;;;;;4995878;28;20030;-24
2023/09/28 01:51:03;;;;;;;3.05;1.30;;;;;;;;;;4995879;28;20040;-22
2023/09/28 01:53:29;;;;;;;2.42;1.40;;;;;;;;;;4995807;28;20027;-19
2023/09/28 01:55:59;;;;;;;2.25;1.55;;;;;;;;;;4996061;28;20034;-22
2023/09/28 01:58:26;;;;;;;2.30;1.85;;;;;;;;;;4978702;28;20437;-23
2023/09/28 02:00:52;;;;;;;1.67;1.58;;;;;;;;;;4978574;28;20026;-27
2023/09/28 02:03:21;;;;;;;1.70;1.60;;;;;;;;;;4995450;28;20117;-23
2023/09/28 02:05:48;;;;;;;1.55;1.45;;;;;;;;;;4995587;28;20057;-24
2023/09/28 02:08:15;;;;;;;1.67;1.25;;;;;;;;;;4996139;28;20438;-20
2023/09/28 02:10:41;;;;;;;1.80;1.17;;;;;;;;;;4995563;28;20117;-22
2023/09/28 02:13:07;;;;;;;4.15;2.13;;;;;;;;;;4995414;28;20121;-25
2023/09/28 02:15:34;;;;;;;3.10;1.80;;;;;;;;;;4995801;28;20026;-22
2023/09/28 02:18:00;;;;;;;1.17;1.15;;;;;;;;;;4995695;28;20034;-26
2023/09/28 02:20:26;;;;;;;1.60;1.20;;;;;;;;;;4995341;28;20030;-25
2023/09/28 02:22:52;;;;;;;1.83;1.40;;;;;;;;;;4995361;28;20065;-26
2023/09/28 02:25:21;;;;;;;1.83;1.27;;;;;;;;;;4995658;28;20026;-22
2023/09/28 02:27:48;;;;;;;1.48;1.30;;;;;;;;;;4995281;28;20038;-21
2023/09/28 02:30:17;;;;;;;1.40;1.30;;;;;;;;;;4994814;28;20032;-20
2023/09/28 02:32:43;;;;;;;2.35;1.95;;;;;;;;;;4994785;28;20443;-23
2023/09/28 02:35:11;;;;;;;2.10;1.65;;;;;;;;;;4995221;28;20027;-23
2023/09/28 02:37:37;;;;;;;1.50;1.20;;;;;;;;;;4995533;28;20050;-24
2023/09/28 02:40:07;;;;;;;1.50;1.38;;;;;;;;;;4995127;28;20018;-25
2023/09/28 02:42:34;;;;;;;2.58;1.55;;;;;;;;;;4995120;28;20092;-21
2023/09/28 02:45:00;;;;;;;1.80;1.48;;;;;;;;;;4995076;28;20029;-22
2023/09/28 02:47:29;;;;;;;1.83;1.73;;;;;;;;;;4995168;28;20026;-21
2023/09/28 02:49:56;;;;;;;1.40;1.30;;;;;;;;;;4995081;28;20022;-23
2023/09/28 02:52:22;;;;;;;3.10;1.52;;;;;;;;;;4995051;28;20365;-26
2023/09/28 02:54:48;;;;;;;1.33;1.23;;;;;;;;;;4995072;28;20353;-23
2023/09/28 02:57:15;;;;;;;1.60;1.33;;;;;;;;;;4977897;28;20033;-27
2023/09/28 02:59:41;;;;;;;3.95;1.63;;;;;;;;;;4995017;28;20027;-21
2023/09/28 03:02:08;;;;;;;2.95;1.38;;;;;;;;;;4994891;28;20034;-26
2023/09/28 03:04:34;;;;;;;1.63;1.48;;;;;;;;;;4994905;28;20125;-26
2023/09/28 03:07:01;;;;;;;2.30;1.55;;;;;;;;;;4994936;28;20022;-25
2023/09/28 03:09:27;;;;;;;1.60;1.50;;;;;;;;;;4995268;28;20033;-24
2023/09/28 03:11:57;;;;;;;1.02;1.02;;;;;;;;;;4994861;28;20101;-22
2023/09/28 03:14:25;;;;;;;1.35;1.25;;;;;;;;;;4995188;28;20037;-25
2023/09/28 03:16:51;;;;;;;1.85;1.42;;;;;;;;;;4994906;28;20054;-22
2023/09/28 03:19:18;;;;;;;1.50;1.40;;;;;;;;;;4994886;28;20030;-26
2023/09/28 03:21:44;;;;;;;4.13;3.55;;;;;;;;;;4994706;28;20117;-23
2023/09/28 03:24:10;;;;;;;1.95;1.50;;;;;;;;;;4994720;28;20093;-21
2023/09/28 03:26:38;;;;;;;1.58;1.35;;;;;;;;;;4995077;28;20022;-24
2023/09/28 03:29:04;;;;;;;1.70;1.38;;;;;;;;;;4994664;28;20031;-23
2023/09/28 03:31:32;;;;;;;2.53;2.33;;;;;;;;;;4977837;28;20061;-25
2023/09/28 03:33:59;;;;;;;1.42;1.33;;;;;;;;;;4994648;28;20421;-24
2023/09/28 03:36:30;;;;;;;1.23;1.13;;;;;;;;;;4994723;28;20030;-24
2023/09/28 03:38:57;;;;;;;1.63;1.52;;;;;;;;;;4995001;28;20425;-20
2023/09/28 03:41:24;;;;;;;1.42;1.33;;;;;;;;;;4995126;28;20018;-21
2023/09/28 03:43:50;;;;;;;1.50;1.40;;;;;;;;;;4997756;28;20361;-26
2023/09/28 03:46:20;;;;;;;3.20;1.30;;;;;;;;;;4998712;28;20041;-22
2023/09/28 03:48:46;;;;;;;2.45;1.58;;;;;;;;;;4998138;28;20177;-23
2023/09/28 03:51:12;;;;;;;1.48;1.38;;;;;;;;;;4998376;28;20056;-26
2023/09/28 03:53:41;;;;;;;1.35;1.25;;;;;;;;;;4998033;28;20457;-25
2023/09/28 03:56:08;;;;;;;1.63;1.48;;;;;;;;;;4998245;28;20158;-23
2023/09/28 03:58:34;;;;;;;1.83;1.65;;;;;;;;;;4998459;28;20037;-22
2023/09/28 04:01:03;;;;;;;1.25;1.15;;;;;;;;;;4997795;28;20458;-26
2023/09/28 04:03:29;;;;;;;2.95;1.95;;;;;;;;;;4997574;28;20057;-22
2023/09/28 04:05:55;;;;;;;2.38;1.55;;;;;;;;;;4997759;28;20030;-22
2023/09/28 04:08:22;;;;;;;2.10;1.83;;;;;;;;;;4997982;28;20425;-22
2023/09/28 04:10:50;;;;;;;2.35;2.22;;;;;;;;;;4997489;28;20022;-27
2023/09/28 04:13:17;;;;;;;4.45;1.90;;;;;;;;;;4980153;28;20022;-24
2023/09/28 04:15:43;;;;;;;1.77;1.67;;;;;;;;;;4997694;28;20037;-22
2023/09/28 04:18:09;;;;;;;1.48;1.38;;;;;;;;;;4997727;28;20054;-25
2023/09/28 04:20:35;;;;;;;1.92;1.77;;;;;;;;;;4997216;28;20049;-22
2023/09/28 04:23:05;;;;;;;1.58;1.35;;;;;;;;;;4980248;28;20065;-22
2023/09/28 04:25:33;;;;;;;2.63;1.63;;;;;;;;;;4997492;28;20353;-23
2023/09/28 04:27:59;;;;;;;1.65;1.55;;;;;;;;;;4979843;28;20103;-25
2023/09/28 04:30:25;;;;;;;1.60;1.50;;;;;;;;;;4979633;28;20038;-23
2023/09/28 04:32:51;;;;;;;1.67;1.58;;;;;;;;;;4996788;28;20390;-22
2023/09/28 04:35:18;;;;;;;1.55;1.45;;;;;;;;;;4979720;28;20108;-24
2023/09/28 04:37:45;;;;;;;1.50;1.40;;;;;;;;;;4996839;28;20031;-23
2023/09/28 04:40:13;;;;;;;2.45;1.50;;;;;;;;;;4996684;28;20117;-24
2023/09/28 04:42:39;;;;;;;5.10;2.15;;;;;;;;;;4996761;28;20033;-22
2023/09/28 04:45:06;;;;;;;4.13;1.83;;;;;;;;;;4996969;28;20050;-26
2023/09/28 04:47:32;;;;;;;4.00;1.75;;;;;;;;;;4979757;28;20026;-25
2023/09/28 04:49:59;;;;;;;5.18;1.55;;;;;;;;;;4996773;28;20094;-22
2023/09/28 04:52:25;;;;;;;1.50;1.38;;;;;;;;;;4996571;28;20109;-24
2023/09/28 04:54:52;;;;;;;1.88;1.45;;;;;;;;;;4995720;28;20062;-24
2023/09/28 04:57:21;;;;;;;6.97;1.80;;;;;;;;;;4996621;28;20057;-26
2023/09/28 04:59:47;;;;;;;2.63;1.58;;;;;;;;;;4996704;28;20492;-24
2023/09/28 05:02:13;;;;;;;5.43;1.80;;;;;;;;;;4996556;28;20031;-23
2023/09/28 05:04:39;;;;;;;7.43;2.50;;;;;;;;;;4996560;28;20054;-25
2023/09/28 05:07:05;;;;;;;7.25;1.77;;;;;;;;;;4996714;28;20389;-26
2023/09/28 05:09:32;;;;;;;3.92;1.70;;;;;;;;;;4997119;28;20045;-19
2023/09/28 05:12:00;;;;;;;2.08;1.63;;;;;;;;;;4996417;28;20399;-20
2023/09/28 05:14:26;;;;;;;4.93;2.95;;;;;;;;;;4980053;28;20436;-25
2023/09/28 05:16:54;;;;;;;3.28;1.42;;;;;;;;;;4996327;28;20468;-23
2023/09/28 05:19:21;;;;;;;2.80;1.63;;;;;;;;;;4996196;28;20461;-23
2023/09/28 05:21:47;;;;;;;6.00;2.53;;;;;;;;;;4996382;28;20103;-27
2023/09/28 05:24:14;;;;;;;5.47;1.50;;;;;;;;;;4996128;28;20029;-24
2023/09/28 05:26:40;;;;;;;6.65;1.77;;;;;;;;;;4996159;28;20028;-22
2023/09/28 05:29:06;;;;;;;8.90;2.20;;;;;;;;;;4996129;28;20030;-22
2023/09/28 05:31:33;;;;;;;4.95;2.00;;;;;;;;;;4996071;28;20023;-24
2023/09/28 05:33:59;;;;;;;8.55;2.10;;;;;;;;;;4996173;28;20367;-21
2023/09/28 05:36:25;;;;;;;3.17;1.67;;;;;;;;;;4978610;28;20034;-21
2023/09/28 05:38:51;;;;;;;8.57;1.88;;;;;;;;;;4996408;28;20040;-25
2023/09/28 05:41:17;;;;;;;5.85;2.03;;;;;;;;;;4996006;28;20054;-24
2023/09/28 05:43:43;;;;;;;3.90;1.75;;;;;;;;;;4995832;28;20362;-23
2023/09/28 05:46:10;;;;;;;5.45;1.75;;;;;;;;;;4995817;28;20028;-26
2023/09/28 05:48:37;;;;;;;4.57;1.80;;;;;;;;;;4978760;28;20026;-25
2023/09/28 05:51:03;;;;;;;2.92;1.30;;;;;;;;;;4995596;28;20026;-25
2023/09/28 05:53:29;;;;;;;2.33;1.40;;;;;;;;;;4995430;28;20130;-29
2023/09/28 05:55:55;;;;;;;4.75;1.98;;;;;;;;;;4996116;28;20045;-27
2023/09/28 05:58:22;;;;;;;2.50;1.42;;;;;;;;;;4995596;28;20117;-23
2023/09/28 06:03:30;;;;;;;2.15;1.95;;;;;;;;;;5243999;23;20108;-25
2023/09/28 06:05:56;;;;;;;1.88;1.48;;;;;;;;;;4995027;28;20030;-24
2023/09/28 06:08:22;;;;;;;1.83;1.50;;;;;;;;;;4995539;28;20018;-23
2023/09/28 06:10:49;;;;;;;1.55;1.45;;;;;;;;;;4978684;28;20064;-22
2023/09/28 06:13:15;;;;;;;4.88;1.80;;;;;;;;;;4995238;28;20026;-23
2023/09/28 06:15:41;;;;;;;5.20;1.50;;;;;;;;;;4995518;28;20373;-23
2023/09/28 06:18:07;;;;;;;2.15;1.80;;;;;;;;;;4995624;28;20030;-23
2023/09/28 06:20:33;;;;;;;2.35;2.03;;;;;;;;;;4977931;28;20125;-24
2023/09/28 06:23:00;;;;;;;2.50;2.08;;;;;;;;;;4977869;28;20469;-24
2023/09/28 06:25:26;;;;;;;5.75;1.55;;;;;;;;;;4995776;28;20345;-24
2023/09/28 06:27:52;;;;;;;3.38;1.33;;;;;;;;;;4995022;28;20034;-23
2023/09/28 06:30:18;;;;;;;2.28;1.38;;;;;;;;;;4995224;28;20026;-22
2023/09/28 06:32:44;;;;;;;6.13;1.27;;;;;;;;;;4994926;28;20101;-25
2023/09/28 06:35:10;;;;;;;5.90;3.83;;;;;;;;;;4995228;28;20112;-25
2023/09/28 06:37:37;;;;;;;1.35;1.25;;;;;;;;;;4995187;28;20027;-24
2023/09/28 06:40:03;;;;;;;2.83;2.17;;;;;;;;;;4977540;28;20022;-23
2023/09/28 06:42:30;;;;;;;5.13;2.45;;;;;;;;;;4994656;28;20041;-22
2023/09/28 06:44:57;;;;;;;4.95;1.40;;;;;;;;;;4994621;28;20476;-23
2023/09/28 06:47:23;;;;;;;2.95;1.90;;;;;;;;;;4995162;28;20033;-23
2023/09/28 06:49:49;;;;;;;1.70;1.55;;;;;;;;;;4994988;28;20081;-24
2023/09/28 06:52:16;;;;;;;3.08;2.05;;;;;;;;;;4994895;28;20089;-24
2023/09/28 06:54:42;;;;;;;2.38;1.50;;;;;;;;;;4995200;28;20048;-23
2023/09/28 06:57:09;;;;;;;4.47;2.22;;;;;;;;;;4994883;28;20089;-22
2023/09/28 06:59:35;;;;;;;6.38;1.90;;;;;;;;;;4995138;28;20461;-22
2023/09/28 07:02:01;;;;;;;9.57;1.73;;;;;;;;;;4994877;28;20107;-24
2023/09/28 07:04:27;;;;;;;8.07;1.85;;;;;;;;;;4995171;28;20043;-24
2023/09/28 07:06:53;;;;;;;3.95;2.25;;;;;;;;;;4994822;28;20018;-24
2023/09/28 07:09:20;;;;;;;10.38;2.47;;;;;;;;;;4977795;28;20019;-24
2023/09/28 07:11:46;;;;;;;4.70;1.55;;;;;;;;;;4994824;28;20154;-23
2023/09/28 07:14:12;;;;;;;2.42;2.20;;;;;;;;;;4994885;28;20030;-22
2023/09/28 07:16:39;;;;;;;1.80;1.55;;;;;;;;;;4995441;28;20058;-23
2023/09/28 07:19:06;;;;;;;1.92;1.50;;;;;;;;;;4981421;28;20472;-23
2023/09/28 07:21:32;;;;;;;2.05;1.67;;;;;;;;;;4981373;28;20027;-24
2023/09/28 07:24:00;;;;;;;3.47;1.77;;;;;;;;;;4998485;28;20360;-22
2023/09/28 07:26:27;;;;;;;4.82;1.88;;;;;;;;;;4998873;28;20385;-24
2023/09/28 07:28:54;;;;;;;1.67;1.58;;;;;;;;;;4998421;28;20484;-22
2023/09/28 07:31:21;;;;;;;13.52;2.00;;;;;;;;;;4981127;28;20026;-23
2023/09/28 07:33:48;;;;;;;2.53;2.08;;;;;;;;;;4998428;28;20035;-23
2023/09/28 07:36:14;;;;;;;13.20;3.17;;;;;;;;;;4998372;28;20380;-24
2023/09/28 07:38:43;;;;;;;12.05;1.95;;;;;;;;;;4998143;28;20104;-23
2023/09/28 07:41:10;;;;;;;4.18;2.20;;;;;;;;;;4998343;28;20026;-30
2023/09/28 07:43:36;;;;;;;2.67;2.33;;;;;;;;;;4998821;28;20030;-23
2023/09/28 07:46:02;;;;;;;4.35;2.00;;;;;;;;;;4998104;28;20050;-21
2023/09/28 07:48:28;;;;;;;9.65;3.53;;;;;;;;;;4998061;28;20073;-18
2023/09/28 07:50:55;;;;;;;6.38;3.08;;;;;;;;;;4997967;28;20026;-19
2023/09/28 07:53:21;;;;;;;3.83;1.83;;;;;;;;;;4998158;28;20030;-20
2023/09/28 07:55:47;;;;;;;4.05;3.63;;;;;;;;;;4997925;28;20101;-19
2023/09/28 07:58:14;;;;;;;2.58;1.80;;;;;;;;;;4997991;28;20109;-22
2023/09/28 08:00:40;;;;;;;1.88;1.77;;;;;;;;;;4980624;28;20177;-22
2023/09/28 08:03:06;;;;;;;2.90;2.00;;;;;;;;;;4997594;28;20073;-21
2023/09/28 08:05:32;;;;;;;2.08;1.70;;;;;;;;;;4998454;28;20105;-21
2023/09/28 08:07:58;;;;;;;2.38;1.77;;;;;;;;;;4997950;28;20109;-20
2023/09/28 08:10:24;;;;;;;2.50;2.30;;;;;;;;;;4997868;28;20100;-23
2023/09/28 08:12:50;;;;;;;4.10;1.80;;;;;;;;;;4997617;28;20026;-19
2023/09/28 08:15:16;;;;;;;3.20;1.98;;;;;;;;;;4997730;28;20100;-22
2023/09/28 08:17:45;;;;;;;5.90;1.85;;;;;;;;;;4997866;28;20081;-22
2023/09/28 08:20:11;;;;;;;2.17;1.98;;;;;;;;;;4997525;28;20353;-19
2023/09/28 08:22:38;;;;;;;5.18;1.80;;;;;;;;;;4998004;28;20045;-19
2023/09/28 08:25:08;;;;;;;4.80;2.13;;;;;;;;;;4997342;28;20540;-21
2023/09/28 08:27:35;;;;;;;4.13;2.63;;;;;;;;;;4997656;28;20027;-21
2023/09/28 08:30:01;;;;;;;3.17;1.70;;;;;;;;;;4997538;28;20039;-19
2023/09/28 08:32:28;;;;;;;3.33;1.60;;;;;;;;;;4997561;28;20036;-20
2023/09/28 08:34:54;;;;;;;3.05;1.58;;;;;;;;;;4997442;28;20058;-23
2023/09/28 08:37:20;;;;;;;4.50;1.60;;;;;;;;;;4997850;28;20034;-22
2023/09/28 08:39:46;;;;;;;4.45;2.13;;;;;;;;;;4997288;28;20361;-18
2023/09/28 08:42:13;;;;;;;3.50;1.80;;;;;;;;;;4996884;28;20449;-20
2023/09/28 08:44:40;;;;;;;3.22;1.83;;;;;;;;;;4979896;28;20030;-22
2023/09/28 08:47:16;;;;;;;1.75;1.50;;;;;;;;;;4997051;28;20081;-19
2023/09/28 08:49:43;;;;;;;5.15;2.42;;;;;;;;;;4997023;28;20034;-21
2023/09/28 08:52:10;;;;;;;3.45;1.98;;;;;;;;;;4997109;28;20038;-21
2023/09/28 08:54:36;;;;;;;6.05;2.03;;;;;;;;;;4996901;28;20027;-22
2023/09/28 08:57:03;;;;;;;3.55;2.47;;;;;;;;;;4997343;28;20113;-23
2023/09/28 08:59:30;;;;;;;2.05;1.67;;;;;;;;;;4996851;28;20028;-18
2023/09/28 09:01:57;;;;;;;2.53;1.80;;;;;;;;;;4996865;28;20096;-19
2023/09/28 09:04:24;;;;;;;4.40;1.80;;;;;;;;;;4979420;28;20050;-24
2023/09/28 09:06:50;;;;;;;4.38;2.03;;;;;;;;;;4996975;28;20018;-24
2023/09/28 09:09:18;;;;;;;4.43;2.40;;;;;;;;;;4996698;28;20019;-21
2023/09/28 09:11:51;;;;;;;3.75;1.75;;;;;;;;;;4997122;28;20404;-22
2023/09/28 09:14:17;;;;;;;3.47;2.55;;;;;;;;;;4996581;28;20121;-22
2023/09/28 09:16:43;;;;;;;3.28;1.63;;;;;;;;;;4979382;28;20037;-21
2023/09/28 09:19:16;;;;;;;3.15;2.22;;;;;;;;;;4996421;28;20026;-20
2023/09/28 09:21:44;;;;;;;3.33;1.98;;;;;;;;;;4996521;28;20445;-21
2023/09/28 09:24:12;;;;;;;5.13;1.90;;;;;;;;;;4996354;28;20025;-23
2023/09/28 09:26:42;;;;;;;2.28;1.60;;;;;;;;;;4979058;28;20213;-20
2023/09/28 09:29:09;;;;;;;9.13;2.00;;;;;;;;;;4996240;28;20121;-21
2023/09/28 09:31:45;;;;;;;4.80;2.33;;;;;;;;;;4978936;28;20026;-19
2023/09/28 09:34:12;;;;;;;2.70;1.83;;;;;;;;;;4978778;28;20092;-22
2023/09/28 09:36:39;;;;;;;3.40;1.77;;;;;;;;;;4996230;28;20108;-20
2023/09/28 09:39:06;;;;;;;4.88;1.80;;;;;;;;;;4995914;28;20030;-18
2023/09/28 09:41:43;;;;;;;4.57;1.52;;;;;;;;;;4995633;28;20034;-23
2023/09/28 09:44:11;;;;;;;2.53;2.33;;;;;;;;;;4996082;28;20353;-24
2023/09/28 09:46:38;;;;;;;9.02;2.78;;;;;;;;;;4995761;28;20088;-20
2023/09/28 09:49:04;;;;;;;8.10;2.30;;;;;;;;;;4996414;28;20041;-21
2023/09/28 09:51:31;;;;;;;4.50;2.95;;;;;;;;;;4995649;28;20209;-18
2023/09/28 09:53:59;;;;;;;7.03;2.05;;;;;;;;;;4995726;28;20065;-18
2023/09/28 09:56:26;;;;;;;6.22;1.95;;;;;;;;;;4995541;28;20026;-19
2023/09/28 09:58:53;;;;;;;3.22;2.42;;;;;;;;;;4995599;28;20033;-17
2023/09/28 10:01:20;;;;;;;3.13;1.80;;;;;;;;;;4995492;28;20026;-18
2023/09/28 10:03:47;;;;;;;2.85;1.88;;;;;;;;;;4995328;28;20482;-19
2023/09/28 10:06:15;;;;;;;4.40;2.40;;;;;;;;;;4995221;28;20093;-20
2023/09/28 10:08:44;;;;;;;6.22;2.05;;;;;;;;;;4995449;28;20026;-22
2023/09/28 10:11:12;;;;;;;5.47;2.10;;;;;;;;;;4978011;28;20062;-22
2023/09/28 10:13:38;;;;;;;6.97;2.30;;;;;;;;;;4978078;28;20030;-21
2023/09/28 10:16:05;;;;;;;13.98;3.35;;;;;;;;;;4995255;28;20027;-21
2023/09/28 10:18:33;;;;;;;13.15;3.97;;;;;;;;;;4995215;28;20105;-19
2023/09/28 10:21:00;;;;;;;5.18;3.05;;;;;;;;;;4995300;28;20357;-23
2023/09/28 10:23:27;;;;;;;6.07;2.08;;;;;;;;;;4977980;28;20043;-19
2023/09/28 10:25:59;;;;;;;5.68;1.92;;;;;;;;;;4995198;28;20022;-19
2023/09/28 10:28:26;;;;;;;6.70;2.05;;;;;;;;;;4995234;28;20031;-20
2023/09/28 10:31:11;;;;;;;10.13;3.10;;;;;;;;;;4995142;28;20018;-23
2023/09/28 10:33:55;;;;;;;4.43;2.60;;;;;;;;;;4995064;28;20033;-22
2023/09/28 10:36:21;;;;;;;14.02;3.45;;;;;;;;;;4995515;28;20037;-20
2023/09/28 10:39:05;;;;;;;6.78;2.72;;;;;;;;;;4995025;28;20030;-20
2023/09/28 10:41:31;;;;;;;12.20;2.55;;;;;;;;;;4995218;28;20030;-22
2023/09/28 10:43:57;;;;;;;9.88;3.20;;;;;;;;;;4994818;28;20030;-21
2023/09/28 10:46:24;;;;;;;4.80;2.47;;;;;;;;;;4994823;28;20085;-19
2023/09/28 10:48:51;;;;;;;13.48;2.67;;;;;;;;;;4995194;28;20434;-17
2023/09/28 10:51:18;;;;;;;9.32;2.50;;;;;;;;;;4994717;28;20034;-20
2023/09/28 10:53:45;;;;;;;4.78;2.20;;;;;;;;;;4998395;28;20061;-21
2023/09/28 10:56:12;;;;;;;3.45;1.90;;;;;;;;;;4998754;28;20030;-19
2023/09/28 10:58:39;;;;;;;8.38;2.13;;;;;;;;;;4999140;28;20030;-22
2023/09/28 11:01:06;;;;;;;8.40;2.08;;;;;;;;;;4999318;28;20323;-18
2023/09/28 11:03:36;;;;;;;5.88;3.38;;;;;;;;;;4998617;28;20042;-21
2023/09/28 11:06:03;;;;;;;4.23;2.23;;;;;;;;;;4998632;28;20034;-20
2023/09/28 11:08:30;;;;;;;5.63;1.80;;;;;;;;;;4999015;28;20265;-18
2023/09/28 11:10:58;;;;;;;4.82;2.13;;;;;;;;;;4981484;28;20347;-19
2023/09/28 11:13:29;;;;;;;5.45;2.53;;;;;;;;;;4999182;28;20065;-25
2023/09/28 11:15:55;;;;;;;6.95;2.05;;;;;;;;;;4998486;28;20034;-20
2023/09/28 11:18:21;;;;;;;4.30;2.40;;;;;;;;;;4998993;28;20120;-20
2023/09/28 11:20:48;;;;;;;6.35;2.55;;;;;;;;;;4998303;28;20358;-20
2023/09/28 11:23:14;;;;;;;3.20;1.60;;;;;;;;;;4998381;28;20026;-22
2023/09/28 11:25:42;;;;;;;4.05;1.80;;;;;;;;;;4998295;28;20421;-23
2023/09/28 11:28:08;;;;;;;5.50;2.17;;;;;;;;;;4998222;28;20054;-25
2023/09/28 11:30:34;;;;;;;5.32;1.90;;;;;;;;;;4998384;28;20400;-21
2023/09/28 11:33:03;;;;;;;6.15;1.73;;;;;;;;;;4997936;28;20076;-20
2023/09/28 11:35:34;;;;;;;6.00;2.30;;;;;;;;;;4998217;28;20461;-19
2023/09/28 11:38:02;;;;;;;17.97;2.33;;;;;;;;;;4998305;28;20166;-23
2023/09/28 11:40:29;;;;;;;9.57;2.30;;;;;;;;;;4998229;28;20034;-21
2023/09/28 11:42:57;;;;;;;10.40;4.38;;;;;;;;;;4997839;28;20027;-18
2023/09/28 11:45:30;;;;;;;8.85;3.05;;;;;;;;;;4997974;28;20116;-20
2023/09/28 11:47:56;;;;;;;14.05;2.60;;;;;;;;;;4998144;28;20022;-20
2023/09/28 11:50:26;;;;;;;8.52;2.58;;;;;;;;;;4998128;28;20037;-20
2023/09/28 11:52:53;;;;;;;5.32;2.20;;;;;;;;;;4997929;28;20037;-22
2023/09/28 11:55:20;;;;;;;9.63;2.47;;;;;;;;;;4998183;28;20023;-22
2023/09/28 11:57:46;;;;;;;28.10;4.57;;;;;;;;;;4998527;28;20080;-19
2023/09/28 12:00:18;;;;;;;14.50;4.43;;;;;;;;;;4981384;28;20035;-26
2023/09/28 12:02:48;;;;;;;18.75;3.55;;;;;;;;;;4981014;28;20060;-20
2023/09/28 12:05:15;;;;;;;18.83;3.78;;;;;;;;;;4997915;28;20039;-25
2023/09/28 12:07:41;;;;;;;17.13;3.42;;;;;;;;;;4980600;28;20046;-19
2023/09/28 12:10:14;;;;;;;19.10;3.60;;;;;;;;;;4997543;28;20457;-19
2023/09/28 12:12:41;;;;;;;12.90;2.72;;;;;;;;;;4997661;28;20027;-22
2023/09/28 12:15:11;;;;;;;27.80;4.15;;;;;;;;;;4997615;28;20026;-18
2023/09/28 12:17:40;;;;;;;11.98;3.35;;;;;;;;;;4997365;28;20041;-20
2023/09/28 12:20:12;;;;;;;9.32;3.38;;;;;;;;;;4997665;28;20335;-22
2023/09/28 12:22:39;;;;;;;11.48;2.42;;;;;;;;;;4997249;28;20026;-20
2023/09/28 12:25:06;;;;;;;5.90;2.30;;;;;;;;;;4997345;28;20098;-21
2023/09/28 12:27:32;;;;;;;4.22;2.20;;;;;;;;;;4997421;28;20037;-21
2023/09/28 12:29:59;;;;;;;10.70;2.58;;;;;;;;;;4997591;28;20019;-22
2023/09/28 12:32:28;;;;;;;6.57;2.63;;;;;;;;;;4997485;28;20437;-22
2023/09/28 12:34:54;;;;;;;5.85;2.38;;;;;;;;;;4997187;28;20457;-20
2023/09/28 12:37:21;;;;;;;8.35;2.33;;;;;;;;;;4997119;28;20033;-22
2023/09/28 12:39:48;;;;;;;5.68;2.33;;;;;;;;;;4997293;28;20027;-23
2023/09/28 12:42:15;;;;;;;7.82;2.47;;;;;;;;;;4996678;28;20093;-23
2023/09/28 12:44:42;;;;;;;10.50;3.22;;;;;;;;;;4996785;28;20089;-20
2023/09/28 12:47:09;;;;;;;7.55;2.13;;;;;;;;;;4979735;28;20361;-20
2023/09/28 12:49:35;;;;;;;7.28;2.13;;;;;;;;;;4997114;28;20026;-21
2023/09/28 12:52:02;;;;;;;11.43;3.10;;;;;;;;;;4997134;28;20030;-20
2023/09/28 12:54:29;;;;;;;5.35;2.35;;;;;;;;;;4979856;28;20054;-21
2023/09/28 12:56:55;;;;;;;8.65;2.20;;;;;;;;;;4979711;28;20466;-21
2023/09/28 12:59:21;;;;;;;8.98;2.35;;;;;;;;;;4996864;28;20034;-23
2023/09/28 13:01:48;;;;;;;8.75;2.72;;;;;;;;;;4996620;28;20484;-20
2023/09/28 13:04:14;;;;;;;10.75;2.20;;;;;;;;;;4996620;28;20108;-23
2023/09/28 13:06:41;;;;;;;6.03;2.40;;;;;;;;;;4996742;28;20029;-21
2023/09/28 13:09:08;;;;;;;3.95;2.13;;;;;;;;;;4979523;28;20045;-21
2023/09/28 13:11:36;;;;;;;5.75;1.77;;;;;;;;;;4996435;28;20084;-24
2023/09/28 13:14:05;;;;;;;2.60;2.05;;;;;;;;;;4996166;28;20034;-20
2023/09/28 13:16:31;;;;;;;10.38;2.33;;;;;;;;;;4978476;28;20038;-24
2023/09/28 13:18:59;;;;;;;4.95;2.88;;;;;;;;;;4979253;28;20026;-18
2023/09/28 13:21:27;;;;;;;15.30;3.25;;;;;;;;;;4996292;28;20054;-23
2023/09/28 13:23:54;;;;;;;3.95;2.03;;;;;;;;;;4996219;28;20359;-22
2023/09/28 13:26:24;;;;;;;4.50;1.92;;;;;;;;;;4996477;28;20073;-20
2023/09/28 13:28:54;;;;;;;9.82;2.20;;;;;;;;;;4996288;28;20129;-19
2023/09/28 13:31:22;;;;;;;13.77;3.33;;;;;;;;;;4996296;28;20034;-23
2023/09/28 13:33:48;;;;;;;11.15;3.65;;;;;;;;;;4996167;28;20042;-18
2023/09/28 13:36:15;;;;;;;9.38;2.38;;;;;;;;;;4996216;28;20475;-20
2023/09/28 13:38:42;;;;;;;4.57;2.78;;;;;;;;;;4996088;28;20034;-21
2023/09/28 13:41:09;;;;;;;11.40;2.67;;;;;;;;;;4995910;28;20480;-24
2023/09/28 13:43:37;;;;;;;13.52;3.20;;;;;;;;;;4996280;28;20380;-22
2023/09/28 13:46:04;;;;;;;10.40;3.08;;;;;;;;;;4995878;28;20449;-19
2023/09/28 13:48:30;;;;;;;11.27;3.42;;;;;;;;;;4996645;28;20038;-20
2023/09/28 13:50:57;;;;;;;6.78;3.10;;;;;;;;;;4995864;28;20037;-21
2023/09/28 13:53:25;;;;;;;8.57;2.65;;;;;;;;;;4995780;28;20034;-21
2023/09/28 13:55:52;;;;;;;12.07;2.72;;;;;;;;;;4995805;28;20026;-20
2023/09/28 13:58:19;;;;;;;12.35;3.03;;;;;;;;;;4995781;28;20353;-22
2023/09/28 14:00:46;;;;;;;9.93;3.00;;;;;;;;;;4995663;28;20062;-18
2023/09/28 14:03:12;;;;;;;8.88;2.80;;;;;;;;;;4995375;28;20046;-19
2023/09/28 14:05:40;;;;;;;6.03;3.10;;;;;;;;;;4995637;28;20081;-20
2023/09/28 14:08:08;;;;;;;6.38;2.45;;;;;;;;;;4995691;28;20058;-21
2023/09/28 14:10:34;;;;;;;11.55;2.80;;;;;;;;;;4995520;28;20026;-21
2023/09/28 14:13:01;;;;;;;10.98;2.83;;;;;;;;;;4995468;28;20062;-19
2023/09/28 14:15:27;;;;;;;12.25;3.15;;;;;;;;;;4995784;28;20022;-21
2023/09/28 14:17:55;;;;;;;7.50;2.03;;;;;;;;;;4995947;28;20377;-21
2023/09/28 14:20:22;;;;;;;7.38;1.92;;;;;;;;;;4995734;28;20018;-18
2023/09/28 14:22:49;;;;;;;6.85;2.70;;;;;;;;;;4995306;28;20030;-21
2023/09/28 14:25:15;;;;;;;9.13;3.35;;;;;;;;;;4995642;28;20014;-20
2023/09/28 14:27:43;;;;;;;10.35;3.17;;;;;;;;;;4995673;28;20030;-18
2023/09/28 14:30:09;;;;;;;6.00;2.83;;;;;;;;;;4995567;28;20113;-19
2023/09/28 14:32:39;;;;;;;11.10;2.85;;;;;;;;;;4995236;28;20416;-22
2023/09/28 14:35:06;;;;;;;9.20;3.50;;;;;;;;;;4995230;28;20041;-23
2023/09/28 14:37:32;;;;;;;7.32;2.80;;;;;;;;;;4978101;28;20054;-21
2023/09/28 14:40:00;;;;;;;9.23;3.08;;;;;;;;;;4995175;28;20471;-22
2023/09/28 14:42:26;;;;;;;12.63;2.72;;;;;;;;;;4995048;28;20365;-22